sensor_id;sensor_type;location;lat;lon;timestamp;P1;durP1;ratioP1;P2;durP2;ratioP2
75112;SDS011;63692;47.338;8.520;2023-03-05T06:11:05;64.47;;;27.42;;
75112;SDS011;63692;47.338;8.520;2023-03-05T06:13:31;67.60;;;29.08;;
75112;SDS011;63692;47.338;8.520;2023-03-05T06:23:24;65.30;;;28.55;;
75112;SDS011;63692;47.338;8.520;2023-03-05T06:28:18;69.10;;;29.13;;
75112;SDS011;63692;47.338;8.520;2023-03-05T06:30:44;61.88;;;27.63;;
75112;SDS011;63692;47.338;8.520;2023-03-05T06:33:10;64.32;;;28.30;;
75112;SDS011;63692;47.338;8.520;2023-03-05T06:35:38;65.68;;;28.88;;
75112;SDS011;63692;47.338;8.520;2023-03-05T06:38:05;63.17;;;28.40;;
75112;SDS011;63692;47.338;8.520;2023-03-05T06:40:32;64.53;;;28.67;;
75112;SDS011;63692;47.338;8.520;2023-03-05T06:42:58;67.03;;;28.65;;
75112;SDS011;63692;47.338;8.520;2023-03-05T06:45:23;66.18;;;28.77;;
75112;SDS011;63692;47.338;8.520;2023-03-05T06:47:49;62.90;;;26.85;;
75112;SDS011;63692;47.338;8.520;2023-03-05T06:50:14;67.00;;;28.15;;
75112;SDS011;63692;47.338;8.520;2023-03-05T06:52:41;61.45;;;27.23;;
75112;SDS011;63692;47.338;8.520;2023-03-05T06:55:07;62.80;;;27.75;;
75112;SDS011;63692;47.338;8.520;2023-03-05T06:57:35;63.28;;;28.17;;
75112;SDS011;63692;47.338;8.520;2023-03-05T07:00:01;62.35;;;27.83;;
75112;SDS011;63692;47.338;8.520;2023-03-05T07:02:34;63.27;;;28.53;;
75112;SDS011;63692;47.338;8.520;2023-03-05T07:05:01;65.78;;;29.02;;
75112;SDS011;63692;47.338;8.520;2023-03-05T07:07:27;68.05;;;28.63;;
75112;SDS011;63692;47.338;8.520;2023-03-05T07:09:52;59.85;;;27.92;;
75112;SDS011;63692;47.338;8.520;2023-03-05T07:12:18;62.88;;;27.60;;
75112;SDS011;63692;47.338;8.520;2023-03-05T07:14:43;66.13;;;28.33;;
75112;SDS011;63692;47.338;8.520;2023-03-05T07:17:09;60.33;;;28.67;;
75112;SDS011;63692;47.338;8.520;2023-03-05T07:19:34;62.08;;;27.25;;
75112;SDS011;63692;47.338;8.520;2023-03-05T07:22:01;69.55;;;29.63;;
75112;SDS011;63692;47.338;8.520;2023-03-05T07:24:27;67.30;;;27.77;;
75112;SDS011;63692;47.338;8.520;2023-03-05T07:26:56;62.90;;;27.95;;
75112;SDS011;63692;47.338;8.520;2023-03-05T07:29:23;65.70;;;28.88;;
75112;SDS011;63692;47.338;8.520;2023-03-05T07:31:49;67.45;;;27.50;;
75112;SDS011;63692;47.338;8.520;2023-03-05T07:34:15;64.57;;;27.42;;
75112;SDS011;63692;47.338;8.520;2023-03-05T07:36:40;65.78;;;29.10;;
75112;SDS011;63692;47.338;8.520;2023-03-05T07:39:07;63.97;;;28.92;;
75112;SDS011;63692;47.338;8.520;2023-03-05T07:41:35;67.40;;;29.15;;
75112;SDS011;63692;47.338;8.520;2023-03-05T07:44:00;66.03;;;28.42;;
75112;SDS011;63692;47.338;8.520;2023-03-05T07:46:27;64.93;;;28.58;;
75112;SDS011;63692;47.338;8.520;2023-03-05T07:48:55;64.78;;;27.98;;
75112;SDS011;63692;47.338;8.520;2023-03-05T07:51:21;67.93;;;30.33;;
75112;SDS011;63692;47.338;8.520;2023-03-05T07:53:48;66.57;;;29.00;;
75112;SDS011;63692;47.338;8.520;2023-03-05T07:56:25;60.67;;;28.13;;
75112;SDS011;63692;47.338;8.520;2023-03-05T07:58:59;61.58;;;27.42;;
75112;SDS011;63692;47.338;8.520;2023-03-05T08:01:26;66.80;;;28.38;;
75112;SDS011;63692;47.338;8.520;2023-03-05T08:03:56;66.30;;;28.67;;
75112;SDS011;63692;47.338;8.520;2023-03-05T08:06:21;68.03;;;28.77;;
75112;SDS011;63692;47.338;8.520;2023-03-05T08:08:47;63.28;;;28.88;;
75112;SDS011;63692;47.338;8.520;2023-03-05T08:11:13;63.85;;;28.52;;
75112;SDS011;63692;47.338;8.520;2023-03-05T08:13:40;62.65;;;27.27;;
75112;SDS011;63692;47.338;8.520;2023-03-05T08:16:07;65.25;;;28.23;;
75112;SDS011;63692;47.338;8.520;2023-03-05T08:18:37;68.57;;;30.17;;
75112;SDS011;63692;47.338;8.520;2023-03-05T08:21:02;63.83;;;28.67;;
75112;SDS011;63692;47.338;8.520;2023-03-05T08:23:28;65.30;;;29.02;;
75112;SDS011;63692;47.338;8.520;2023-03-05T08:25:54;63.97;;;28.48;;
75112;SDS011;63692;47.338;8.520;2023-03-05T08:28:20;66.20;;;28.30;;
75112;SDS011;63692;47.338;8.520;2023-03-05T08:30:46;57.65;;;27.13;;
75112;SDS011;63692;47.338;8.520;2023-03-05T08:33:13;66.43;;;28.65;;
75112;SDS011;63692;47.338;8.520;2023-03-05T08:35:39;62.25;;;28.60;;
75112;SDS011;63692;47.338;8.520;2023-03-05T08:38:05;65.63;;;29.48;;
75112;SDS011;63692;47.338;8.520;2023-03-05T08:40:30;62.58;;;28.20;;
75112;SDS011;63692;47.338;8.520;2023-03-05T08:42:56;63.30;;;28.55;;
75112;SDS011;63692;47.338;8.520;2023-03-05T08:45:23;64.63;;;28.45;;
75112;SDS011;63692;47.338;8.520;2023-03-05T08:47:50;60.00;;;28.05;;
75112;SDS011;63692;47.338;8.520;2023-03-05T08:50:15;66.05;;;29.13;;
75112;SDS011;63692;47.338;8.520;2023-03-05T08:52:42;66.50;;;29.25;;
75112;SDS011;63692;47.338;8.520;2023-03-05T08:55:08;62.67;;;27.92;;
75112;SDS011;63692;47.338;8.520;2023-03-05T08:57:35;62.28;;;28.30;;
75112;SDS011;63692;47.338;8.520;2023-03-05T09:00:00;60.08;;;28.30;;
75112;SDS011;63692;47.338;8.520;2023-03-05T09:02:26;59.97;;;28.10;;
75112;SDS011;63692;47.338;8.520;2023-03-05T09:04:52;63.92;;;28.50;;
75112;SDS011;63692;47.338;8.520;2023-03-05T09:07:17;65.15;;;29.05;;
75112;SDS011;63692;47.338;8.520;2023-03-05T09:09:43;64.22;;;29.55;;
75112;SDS011;63692;47.338;8.520;2023-03-05T09:12:08;63.17;;;28.75;;
75112;SDS011;63692;47.338;8.520;2023-03-05T09:14:35;63.75;;;29.10;;
75112;SDS011;63692;47.338;8.520;2023-03-05T09:17:01;61.00;;;28.45;;
75112;SDS011;63692;47.338;8.520;2023-03-05T09:19:27;60.10;;;28.75;;
75112;SDS011;63692;47.338;8.520;2023-03-05T09:21:52;64.30;;;28.70;;
75112;SDS011;63692;47.338;8.520;2023-03-05T09:24:18;70.50;;;30.30;;
75112;SDS011;63692;47.338;8.520;2023-03-05T09:26:43;62.17;;;29.92;;
75112;SDS011;63692;47.338;8.520;2023-03-05T09:29:09;69.82;;;31.20;;
75112;SDS011;63692;47.338;8.520;2023-03-05T09:31:36;67.55;;;32.10;;
75112;SDS011;63692;47.338;8.520;2023-03-05T09:34:02;67.88;;;30.30;;
75112;SDS011;63692;47.338;8.520;2023-03-05T09:36:29;68.63;;;31.98;;
75112;SDS011;63692;47.338;8.520;2023-03-05T09:38:56;76.47;;;32.95;;
75112;SDS011;63692;47.338;8.520;2023-03-05T09:41:27;68.68;;;31.02;;
75112;SDS011;63692;47.338;8.520;2023-03-05T09:46:38;70.97;;;31.00;;
75112;SDS011;63692;47.338;8.520;2023-03-05T09:49:16;74.07;;;32.95;;
75112;SDS011;63692;47.338;8.520;2023-03-05T09:51:42;71.75;;;31.67;;
75112;SDS011;63692;47.338;8.520;2023-03-05T09:57:01;69.32;;;30.35;;
75112;SDS011;63692;47.338;8.520;2023-03-05T09:59:34;71.82;;;30.98;;
75112;SDS011;63692;47.338;8.520;2023-03-05T10:02:20;70.18;;;31.52;;
75112;SDS011;63692;47.338;8.520;2023-03-05T10:04:54;69.43;;;30.95;;
75112;SDS011;63692;47.338;8.520;2023-03-05T10:07:33;68.50;;;30.88;;
75112;SDS011;63692;47.338;8.520;2023-03-05T10:10:04;72.93;;;32.10;;
75112;SDS011;63692;47.338;8.520;2023-03-05T10:12:39;69.60;;;30.85;;
75112;SDS011;63692;47.338;8.520;2023-03-05T10:15:12;69.50;;;32.30;;
75112;SDS011;63692;47.338;8.520;2023-03-05T10:31:53;65.97;;;29.92;;
75112;SDS011;63692;47.338;8.520;2023-03-05T10:37:30;63.38;;;29.00;;
75112;SDS011;63692;47.338;8.520;2023-03-05T10:40:40;66.20;;;31.50;;
75112;SDS011;63692;47.338;8.520;2023-03-05T10:43:21;63.03;;;29.58;;
75112;SDS011;63692;47.338;8.520;2023-03-05T10:46:03;63.88;;;29.88;;
75112;SDS011;63692;47.338;8.520;2023-03-05T10:51:32;68.75;;;30.02;;
75112;SDS011;63692;47.338;8.520;2023-03-05T10:54:13;66.55;;;31.00;;
75112;SDS011;63692;47.338;8.520;2023-03-05T10:56:42;63.38;;;29.65;;
75112;SDS011;63692;47.338;8.520;2023-03-05T10:59:08;68.47;;;31.73;;
75112;SDS011;63692;47.338;8.520;2023-03-05T11:01:33;68.43;;;32.42;;
75112;SDS011;63692;47.338;8.520;2023-03-05T11:04:04;66.13;;;29.85;;
75112;SDS011;63692;47.338;8.520;2023-03-05T11:11:39;61.03;;;28.90;;
75112;SDS011;63692;47.338;8.520;2023-03-05T11:14:04;61.67;;;30.33;;
75112;SDS011;63692;47.338;8.520;2023-03-05T11:16:53;65.10;;;30.75;;
75112;SDS011;63692;47.338;8.520;2023-03-05T11:19:22;60.95;;;29.17;;
75112;SDS011;63692;47.338;8.520;2023-03-05T11:22:35;61.45;;;30.00;;
75112;SDS011;63692;47.338;8.520;2023-03-05T11:24:45;62.72;;;29.05;;
75112;SDS011;63692;47.338;8.520;2023-03-05T11:32:27;63.95;;;29.00;;
75112;SDS011;63692;47.338;8.520;2023-03-05T11:37:22;64.85;;;29.95;;
75112;SDS011;63692;47.338;8.520;2023-03-05T11:45:14;61.65;;;28.77;;
75112;SDS011;63692;47.338;8.520;2023-03-05T11:47:49;63.05;;;29.08;;
75112;SDS011;63692;47.338;8.520;2023-03-05T11:50:22;65.03;;;29.52;;
75112;SDS011;63692;47.338;8.520;2023-03-05T12:01:00;64.68;;;30.25;;
75112;SDS011;63692;47.338;8.520;2023-03-05T12:03:34;62.90;;;29.13;;
75112;SDS011;63692;47.338;8.520;2023-03-05T12:06:09;59.40;;;28.70;;
75112;SDS011;63692;47.338;8.520;2023-03-05T12:08:43;61.60;;;28.27;;
75112;SDS011;63692;47.338;8.520;2023-03-05T12:11:16;67.35;;;30.13;;
75112;SDS011;63692;47.338;8.520;2023-03-05T12:13:45;58.03;;;28.55;;
75112;SDS011;63692;47.338;8.520;2023-03-05T12:21:50;61.90;;;29.30;;
75112;SDS011;63692;47.338;8.520;2023-03-05T12:35:04;57.90;;;27.35;;
75112;SDS011;63692;47.338;8.520;2023-03-05T12:42:54;58.28;;;27.48;;
75112;SDS011;63692;47.338;8.520;2023-03-05T12:45:34;59.30;;;28.30;;
75112;SDS011;63692;47.338;8.520;2023-03-05T13:02:20;64.13;;;29.33;;
75112;SDS011;63692;47.338;8.520;2023-03-05T13:04:46;59.08;;;28.23;;
75112;SDS011;63692;47.338;8.520;2023-03-05T13:07:13;59.03;;;27.48;;
75112;SDS011;63692;47.338;8.520;2023-03-05T13:09:40;58.55;;;29.60;;
75112;SDS011;63692;47.338;8.520;2023-03-05T13:12:19;58.00;;;27.02;;
75112;SDS011;63692;47.338;8.520;2023-03-05T13:14:47;58.88;;;28.20;;
75112;SDS011;63692;47.338;8.520;2023-03-05T13:17:37;59.25;;;28.08;;
75112;SDS011;63692;47.338;8.520;2023-03-05T13:23:04;58.20;;;28.15;;
75112;SDS011;63692;47.338;8.520;2023-03-05T13:26:08;58.60;;;27.42;;
75112;SDS011;63692;47.338;8.520;2023-03-05T13:29:27;59.38;;;28.05;;
75112;SDS011;63692;47.338;8.520;2023-03-05T13:31:32;57.70;;;26.90;;
75112;SDS011;63692;47.338;8.520;2023-03-05T13:34:07;54.20;;;27.20;;
75112;SDS011;63692;47.338;8.520;2023-03-05T13:36:45;51.97;;;25.58;;
75112;SDS011;63692;47.338;8.520;2023-03-05T13:39:27;53.92;;;26.20;;
75112;SDS011;63692;47.338;8.520;2023-03-05T13:41:58;52.55;;;26.77;;
75112;SDS011;63692;47.338;8.520;2023-03-05T13:44:29;55.22;;;25.42;;
75112;SDS011;63692;47.338;8.520;2023-03-05T13:47:05;52.00;;;24.88;;
75112;SDS011;63692;47.338;8.520;2023-03-05T13:49:32;53.55;;;25.30;;
75112;SDS011;63692;47.338;8.520;2023-03-05T13:51:58;54.40;;;26.45;;
75112;SDS011;63692;47.338;8.520;2023-03-05T13:54:24;51.75;;;26.98;;
75112;SDS011;63692;47.338;8.520;2023-03-05T13:59:26;48.35;;;25.52;;
75112;SDS011;63692;47.338;8.520;2023-03-05T14:01:55;55.13;;;26.13;;
75112;SDS011;63692;47.338;8.520;2023-03-05T14:04:27;50.88;;;24.77;;
75112;SDS011;63692;47.338;8.520;2023-03-05T14:07:04;51.58;;;26.77;;
75112;SDS011;63692;47.338;8.520;2023-03-05T14:12:50;49.92;;;25.63;;
75112;SDS011;63692;47.338;8.520;2023-03-05T14:14:59;51.97;;;26.17;;
75112;SDS011;63692;47.338;8.520;2023-03-05T14:20:08;55.83;;;26.90;;
75112;SDS011;63692;47.338;8.520;2023-03-05T14:28:00;52.03;;;26.13;;
75112;SDS011;63692;47.338;8.520;2023-03-05T14:30:49;48.13;;;25.23;;
75112;SDS011;63692;47.338;8.520;2023-03-05T14:33:20;49.00;;;25.10;;
75112;SDS011;63692;47.338;8.520;2023-03-05T14:35:48;46.20;;;23.77;;
75112;SDS011;63692;47.338;8.520;2023-03-05T14:38:25;51.97;;;25.92;;
75112;SDS011;63692;47.338;8.520;2023-03-05T14:40:53;44.65;;;25.27;;
75112;SDS011;63692;47.338;8.520;2023-03-05T14:43:19;46.88;;;24.52;;
75112;SDS011;63692;47.338;8.520;2023-03-05T14:45:44;47.42;;;24.08;;
75112;SDS011;63692;47.338;8.520;2023-03-05T14:48:12;48.50;;;25.75;;
75112;SDS011;63692;47.338;8.520;2023-03-05T14:50:43;49.35;;;25.58;;
75112;SDS011;63692;47.338;8.520;2023-03-05T14:53:34;51.45;;;26.35;;
75112;SDS011;63692;47.338;8.520;2023-03-05T14:56:05;47.97;;;25.85;;
75112;SDS011;63692;47.338;8.520;2023-03-05T14:58:42;46.95;;;24.30;;
75112;SDS011;63692;47.338;8.520;2023-03-05T15:01:09;44.78;;;24.30;;
75112;SDS011;63692;47.338;8.520;2023-03-05T15:03:36;42.72;;;23.83;;
75112;SDS011;63692;47.338;8.520;2023-03-05T15:06:02;49.10;;;26.05;;
75112;SDS011;63692;47.338;8.520;2023-03-05T15:08:29;50.97;;;26.08;;
75112;SDS011;63692;47.338;8.520;2023-03-05T15:10:56;46.72;;;24.38;;
75112;SDS011;63692;47.338;8.520;2023-03-05T15:13:23;51.72;;;25.25;;
75112;SDS011;63692;47.338;8.520;2023-03-05T15:15:50;47.40;;;25.83;;
75112;SDS011;63692;47.338;8.520;2023-03-05T15:18:18;49.13;;;25.00;;
75112;SDS011;63692;47.338;8.520;2023-03-05T15:20:45;48.10;;;25.20;;
75112;SDS011;63692;47.338;8.520;2023-03-05T15:23:13;50.33;;;25.00;;
75112;SDS011;63692;47.338;8.520;2023-03-05T15:25:39;48.63;;;24.02;;
75112;SDS011;63692;47.338;8.520;2023-03-05T15:28:05;45.92;;;23.98;;
75112;SDS011;63692;47.338;8.520;2023-03-05T15:30:33;47.35;;;23.83;;
75112;SDS011;63692;47.338;8.520;2023-03-05T15:33:02;44.60;;;23.30;;
75112;SDS011;63692;47.338;8.520;2023-03-05T15:35:29;43.22;;;24.02;;
75112;SDS011;63692;47.338;8.520;2023-03-05T15:37:55;48.33;;;25.15;;
75112;SDS011;63692;47.338;8.520;2023-03-05T15:40:22;45.35;;;23.95;;
75112;SDS011;63692;47.338;8.520;2023-03-05T15:42:48;45.00;;;24.50;;
75112;SDS011;63692;47.338;8.520;2023-03-05T15:45:14;51.85;;;27.20;;
75112;SDS011;63692;47.338;8.520;2023-03-05T15:47:40;48.55;;;24.33;;
75112;SDS011;63692;47.338;8.520;2023-03-05T15:50:06;47.50;;;24.42;;
75112;SDS011;63692;47.338;8.520;2023-03-05T15:52:33;48.08;;;24.40;;
75112;SDS011;63692;47.338;8.520;2023-03-05T15:54:59;47.05;;;24.15;;
75112;SDS011;63692;47.338;8.520;2023-03-05T15:57:25;45.95;;;24.17;;
75112;SDS011;63692;47.338;8.520;2023-03-05T15:59:51;47.90;;;24.70;;
75112;SDS011;63692;47.338;8.520;2023-03-05T16:02:18;47.55;;;24.73;;
75112;SDS011;63692;47.338;8.520;2023-03-05T16:04:43;52.33;;;25.27;;
75112;SDS011;63692;47.338;8.520;2023-03-05T16:07:09;48.38;;;24.42;;
75112;SDS011;63692;47.338;8.520;2023-03-05T16:09:37;51.75;;;24.48;;
75112;SDS011;63692;47.338;8.520;2023-03-05T16:12:06;51.30;;;24.58;;
75112;SDS011;63692;47.338;8.520;2023-03-05T16:14:35;50.50;;;24.98;;
75112;SDS011;63692;47.338;8.520;2023-03-05T16:17:02;47.55;;;23.73;;
75112;SDS011;63692;47.338;8.520;2023-03-05T16:19:29;50.70;;;24.73;;
75112;SDS011;63692;47.338;8.520;2023-03-05T16:21:58;49.05;;;23.83;;
75112;SDS011;63692;47.338;8.520;2023-03-05T16:24:24;49.50;;;23.23;;
75112;SDS011;63692;47.338;8.520;2023-03-05T16:26:50;50.58;;;24.30;;
75112;SDS011;63692;47.338;8.520;2023-03-05T16:29:16;52.58;;;25.42;;
75112;SDS011;63692;47.338;8.520;2023-03-05T16:31:42;52.55;;;25.40;;
75112;SDS011;63692;47.338;8.520;2023-03-05T16:34:09;51.95;;;24.58;;
75112;SDS011;63692;47.338;8.520;2023-03-05T16:36:38;55.72;;;25.67;;
75112;SDS011;63692;47.338;8.520;2023-03-05T16:39:04;53.67;;;24.95;;
75112;SDS011;63692;47.338;8.520;2023-03-05T16:41:30;53.50;;;24.95;;
75112;SDS011;63692;47.338;8.520;2023-03-05T16:43:57;53.33;;;26.05;;
75112;SDS011;63692;47.338;8.520;2023-03-05T16:46:24;57.70;;;27.35;;
75112;SDS011;63692;47.338;8.520;2023-03-05T16:48:52;53.22;;;25.42;;
75112;SDS011;63692;47.338;8.520;2023-03-05T16:51:18;49.72;;;25.23;;
75112;SDS011;63692;47.338;8.520;2023-03-05T16:53:44;55.50;;;26.38;;
75112;SDS011;63692;47.338;8.520;2023-03-05T16:56:10;55.70;;;25.95;;
75112;SDS011;63692;47.338;8.520;2023-03-05T16:58:36;55.33;;;26.08;;
75112;SDS011;63692;47.338;8.520;2023-03-05T17:01:09;52.17;;;25.17;;
75112;SDS011;63692;47.338;8.520;2023-03-05T17:03:35;57.40;;;26.42;;
75112;SDS011;63692;47.338;8.520;2023-03-05T17:06:12;58.30;;;27.08;;
75112;SDS011;63692;47.338;8.520;2023-03-05T17:08:40;48.08;;;23.98;;
75112;SDS011;63692;47.338;8.520;2023-03-05T17:11:07;56.35;;;26.00;;
75112;SDS011;63692;47.338;8.520;2023-03-05T17:13:33;55.13;;;25.63;;
75112;SDS011;63692;47.338;8.520;2023-03-05T17:18:26;50.60;;;24.88;;
75112;SDS011;63692;47.338;8.520;2023-03-05T17:20:52;50.33;;;25.02;;
75112;SDS011;63692;47.338;8.520;2023-03-05T17:23:18;52.28;;;25.83;;
75112;SDS011;63692;47.338;8.520;2023-03-05T17:25:43;55.60;;;26.23;;
75112;SDS011;63692;47.338;8.520;2023-03-05T17:28:09;52.80;;;24.85;;
75112;SDS011;63692;47.338;8.520;2023-03-05T17:30:35;65.32;;;27.40;;
75112;SDS011;63692;47.338;8.520;2023-03-05T17:33:01;59.25;;;25.55;;
75112;SDS011;63692;47.338;8.520;2023-03-05T17:35:28;56.00;;;26.85;;
75112;SDS011;63692;47.338;8.520;2023-03-05T17:37:54;53.45;;;26.17;;
75112;SDS011;63692;47.338;8.520;2023-03-05T17:40:20;56.45;;;26.30;;
75112;SDS011;63692;47.338;8.520;2023-03-05T17:42:46;64.25;;;26.13;;
75112;SDS011;63692;47.338;8.520;2023-03-05T17:45:12;54.40;;;25.50;;
75112;SDS011;63692;47.338;8.520;2023-03-05T17:47:37;52.92;;;25.15;;
75112;SDS011;63692;47.338;8.520;2023-03-05T17:50:03;55.70;;;25.33;;
75112;SDS011;63692;47.338;8.520;2023-03-05T17:52:31;48.97;;;23.60;;
75112;SDS011;63692;47.338;8.520;2023-03-05T17:54:57;52.50;;;24.27;;
75112;SDS011;63692;47.338;8.520;2023-03-05T17:57:23;52.63;;;24.70;;
75112;SDS011;63692;47.338;8.520;2023-03-05T17:59:49;55.65;;;24.83;;
75112;SDS011;63692;47.338;8.520;2023-03-05T18:02:14;53.92;;;24.90;;
75112;SDS011;63692;47.338;8.520;2023-03-05T18:04:40;53.58;;;26.65;;
75112;SDS011;63692;47.338;8.520;2023-03-05T18:07:07;58.50;;;26.45;;
75112;SDS011;63692;47.338;8.520;2023-03-05T18:09:34;56.30;;;25.98;;
75112;SDS011;63692;47.338;8.520;2023-03-05T18:11:59;54.13;;;25.65;;
75112;SDS011;63692;47.338;8.520;2023-03-05T18:14:26;52.28;;;25.38;;
75112;SDS011;63692;47.338;8.520;2023-03-05T18:16:51;58.67;;;25.73;;
75112;SDS011;63692;47.338;8.520;2023-03-05T18:19:18;55.88;;;26.10;;
75112;SDS011;63692;47.338;8.520;2023-03-05T18:21:44;58.80;;;25.83;;
75112;SDS011;63692;47.338;8.520;2023-03-05T18:24:10;58.75;;;25.92;;
75112;SDS011;63692;47.338;8.520;2023-03-05T18:26:36;59.63;;;25.48;;
75112;SDS011;63692;47.338;8.520;2023-03-05T18:29:01;56.35;;;25.88;;
75112;SDS011;63692;47.338;8.520;2023-03-05T18:31:27;60.55;;;27.05;;
75112;SDS011;63692;47.338;8.520;2023-03-05T18:33:53;56.53;;;25.83;;
75112;SDS011;63692;47.338;8.520;2023-03-05T18:36:19;58.17;;;27.35;;
75112;SDS011;63692;47.338;8.520;2023-03-05T18:38:45;62.00;;;25.95;;
75112;SDS011;63692;47.338;8.520;2023-03-05T18:41:17;52.22;;;25.30;;
75112;SDS011;63692;47.338;8.520;2023-03-05T18:43:44;59.97;;;27.15;;
75112;SDS011;63692;47.338;8.520;2023-03-05T18:46:10;57.15;;;26.95;;
75112;SDS011;63692;47.338;8.520;2023-03-05T18:48:36;59.50;;;26.85;;
75112;SDS011;63692;47.338;8.520;2023-03-05T18:51:02;59.33;;;27.42;;
75112;SDS011;63692;47.338;8.520;2023-03-05T18:53:28;59.22;;;27.63;;
75112;SDS011;63692;47.338;8.520;2023-03-05T18:55:54;62.25;;;27.10;;
75112;SDS011;63692;47.338;8.520;2023-03-05T18:58:20;55.03;;;26.40;;
75112;SDS011;63692;47.338;8.520;2023-03-05T19:00:45;64.22;;;30.10;;
75112;SDS011;63692;47.338;8.520;2023-03-05T19:03:12;61.50;;;25.67;;
75112;SDS011;63692;47.338;8.520;2023-03-05T19:05:38;58.97;;;26.98;;
75112;SDS011;63692;47.338;8.520;2023-03-05T19:08:05;59.38;;;26.27;;
75112;SDS011;63692;47.338;8.520;2023-03-05T19:10:34;56.80;;;25.42;;
75112;SDS011;63692;47.338;8.520;2023-03-05T19:13:01;58.20;;;26.75;;
75112;SDS011;63692;47.338;8.520;2023-03-05T19:15:58;55.15;;;24.60;;
75112;SDS011;63692;47.338;8.520;2023-03-05T19:21:39;60.80;;;25.85;;
75112;SDS011;63692;47.338;8.520;2023-03-05T19:24:09;56.60;;;25.05;;
75112;SDS011;63692;47.338;8.520;2023-03-05T19:26:36;57.67;;;25.30;;
75112;SDS011;63692;47.338;8.520;2023-03-05T19:29:02;65.15;;;29.50;;
75112;SDS011;63692;47.338;8.520;2023-03-05T19:31:29;60.58;;;27.05;;
75112;SDS011;63692;47.338;8.520;2023-03-05T19:33:55;56.60;;;26.75;;
75112;SDS011;63692;47.338;8.520;2023-03-05T19:36:20;58.28;;;26.90;;
75112;SDS011;63692;47.338;8.520;2023-03-05T19:38:46;59.75;;;27.17;;
75112;SDS011;63692;47.338;8.520;2023-03-05T19:41:12;61.58;;;26.98;;
75112;SDS011;63692;47.338;8.520;2023-03-05T19:43:38;63.42;;;27.17;;
75112;SDS011;63692;47.338;8.520;2023-03-05T19:46:05;62.75;;;26.38;;
75112;SDS011;63692;47.338;8.520;2023-03-05T19:48:32;70.85;;;28.90;;
75112;SDS011;63692;47.338;8.520;2023-03-05T19:50:59;65.32;;;27.55;;
75112;SDS011;63692;47.338;8.520;2023-03-05T19:53:24;65.28;;;28.55;;
75112;SDS011;63692;47.338;8.520;2023-03-05T19:55:50;67.57;;;28.80;;
75112;SDS011;63692;47.338;8.520;2023-03-05T19:58:16;60.38;;;27.55;;
75112;SDS011;63692;47.338;8.520;2023-03-05T20:00:42;65.35;;;26.27;;
75112;SDS011;63692;47.338;8.520;2023-03-05T20:03:08;63.97;;;28.02;;
75112;SDS011;63692;47.338;8.520;2023-03-05T20:05:34;61.83;;;27.40;;
75112;SDS011;63692;47.338;8.520;2023-03-05T20:08:00;65.07;;;28.58;;
75112;SDS011;63692;47.338;8.520;2023-03-05T20:10:25;61.67;;;26.40;;
75112;SDS011;63692;47.338;8.520;2023-03-05T20:12:51;61.40;;;27.55;;
75112;SDS011;63692;47.338;8.520;2023-03-05T20:15:17;67.30;;;28.65;;
75112;SDS011;63692;47.338;8.520;2023-03-05T20:17:45;61.55;;;26.70;;
75112;SDS011;63692;47.338;8.520;2023-03-05T20:20:14;67.07;;;28.48;;
75112;SDS011;63692;47.338;8.520;2023-03-05T20:22:42;68.32;;;27.88;;
75112;SDS011;63692;47.338;8.520;2023-03-05T20:25:15;69.93;;;28.75;;
75112;SDS011;63692;47.338;8.520;2023-03-05T20:27:42;69.25;;;29.63;;
75112;SDS011;63692;47.338;8.520;2023-03-05T20:30:10;72.47;;;29.85;;
75112;SDS011;63692;47.338;8.520;2023-03-05T20:32:39;66.93;;;28.25;;
75112;SDS011;63692;47.338;8.520;2023-03-05T20:35:05;64.68;;;28.08;;
75112;SDS011;63692;47.338;8.520;2023-03-05T20:37:48;66.13;;;29.13;;
75112;SDS011;63692;47.338;8.520;2023-03-05T20:40:48;59.95;;;27.27;;
75112;SDS011;63692;47.338;8.520;2023-03-05T20:43:35;59.55;;;26.10;;
75112;SDS011;63692;47.338;8.520;2023-03-05T20:46:04;64.68;;;28.05;;
75112;SDS011;63692;47.338;8.520;2023-03-05T20:48:37;64.70;;;27.73;;
75112;SDS011;63692;47.338;8.520;2023-03-05T20:51:10;67.63;;;27.10;;
75112;SDS011;63692;47.338;8.520;2023-03-05T20:53:40;62.85;;;26.92;;
75112;SDS011;63692;47.338;8.520;2023-03-05T20:56:06;60.42;;;25.55;;
75112;SDS011;63692;47.338;8.520;2023-03-05T20:58:32;58.83;;;25.92;;
75112;SDS011;63692;47.338;8.520;2023-03-05T21:00:58;63.75;;;26.73;;
75112;SDS011;63692;47.338;8.520;2023-03-05T21:03:24;61.42;;;27.00;;
75112;SDS011;63692;47.338;8.520;2023-03-05T21:05:49;56.45;;;25.27;;
75112;SDS011;63692;47.338;8.520;2023-03-05T21:08:15;60.28;;;25.85;;
75112;SDS011;63692;47.338;8.520;2023-03-05T21:10:41;59.17;;;25.60;;
75112;SDS011;63692;47.338;8.520;2023-03-05T21:15:34;61.25;;;25.83;;
75112;SDS011;63692;47.338;8.520;2023-03-05T21:18:00;63.25;;;25.98;;
75112;SDS011;63692;47.338;8.520;2023-03-05T21:20:27;54.55;;;24.88;;
75112;SDS011;63692;47.338;8.520;2023-03-05T21:22:54;60.15;;;25.52;;
75112;SDS011;63692;47.338;8.520;2023-03-05T21:25:24;54.92;;;25.38;;
